Holstein, IA (51025)

7:18 PM CDT on August 28, 2015 (GMT -0500)
Holstein Ag Services, LLC | | Change Station
CLOSE
Current Station
Personal Weather Station
Location: Holstein, IA
Elevation: 1381 ft
Nearby Weather Stations

Elev 1381 ft 42.50 °N, 95.54 °W | Updated 48 seconds ago

Overcast
Overcast
61.4 °F
Feels Like 61.4 °F
N
13.0
Wind Variable Wind from North
Gusts 18.0 mph

Today
High -- | Low -- °F
--% Chance of Precip.
Yesterday
High -- | Low -- °F
Precip. -- in
6:42 AM 8:03 PM
Waxing Gibbous, 99% visible
Pressure 29.93 in
Visibility 7.0 miles
Clouds Overcast 500 ft
Dew Point 61 °F
Humidity 98%
Rainfall 1.44 in
Snow Depth Not available.
UV 0 out of 12
Pollen 4.90 out of 12
Air Quality Not available.
Flu Activity Not available.
METAR KCKP 282355Z AUTO 02010KT 7SM OVC005 16/16 A2993 RMK AO2 T01640164 10183 20161
Pressure 29.93 in
Visibility 7.0 miles
Clouds Overcast 500 ft
Dew Point 61 °F
Humidity 98%
Rainfall 1.44 in
Snow Depth Not available.
UV 0 out of 12
Pollen 4.90 out of 12
Air Quality Not available.
Flu Activity Not available.
METAR KCKP 282355Z AUTO 02010KT 7SM OVC005 16/16 A2993 RMK AO2 T01640164 10183 20161

10-Day Weather Forecast

×

Almanac

Astronomy

Aug. 28, 2015 Rise Set
Actual Time
Civil Twilight
Nautical Twilight
Astronomical Twilight
Moon
Length of Visible Light
Length of Day
Tomorrow will be .
, % of the Moon is Illuminated

Today's Extremes

State Highs State Lows

Community

WunderPhotos

Upload Photos

1,850,543 photos uploaded!

WunderBlogs® & News

Nearby

Air Quality

  Air Quality AQ Index Pollutant
Not available.

Snow Depth

Station Depth Elevation

Earthquake Activity

City Distance Mag. Time & Date
Minimum magnitude displayed is 2.5.

Coastal Water Temperatures

Place Temperature

Stations

Nearby Weather Stations

Station Location Temp. Windchill Dew Point Humidity Wind Precip. Elev Updated Type